createdAt,value
2017-09-30T00:02:35.309Z,70.46
2017-09-30T00:17:37.281Z,70.05
2017-09-30T00:32:37.110Z,69.47
2017-09-30T00:47:34.695Z,68.91
2017-09-30T01:02:35.426Z,68.64
2017-09-30T01:17:35.349Z,69.00
2017-09-30T01:32:36.231Z,68.39
2017-09-30T01:47:34.946Z,69.61
2017-09-30T02:02:34.680Z,71.37
2017-09-30T02:17:36.553Z,72.27
2017-09-30T02:32:35.046Z,71.86
2017-09-30T02:47:34.990Z,70.27
2017-09-30T03:02:34.927Z,68.57
2017-09-30T03:17:35.918Z,67.36
2017-09-30T03:32:35.292Z,66.56
2017-09-30T03:47:35.771Z,66.21
2017-09-30T04:02:35.141Z,67.41
2017-09-30T04:17:35.167Z,68.00
2017-09-30T04:32:34.534Z,68.26
2017-09-30T04:47:34.712Z,68.97
2017-09-30T05:02:34.443Z,68.42
2017-09-30T05:17:34.398Z,67.26
2017-09-30T05:32:34.836Z,66.80
2017-09-30T05:47:35.753Z,65.34
2017-09-30T06:02:34.749Z,61.05
2017-09-30T06:17:34.653Z,60.66
2017-09-30T06:32:35.072Z,60.42
2017-09-30T06:47:37.033Z,59.21
2017-09-30T07:02:34.971Z,55.49
2017-09-30T07:17:36.890Z,53.30
2017-09-30T07:32:35.328Z,52.00
2017-09-30T07:47:35.262Z,50.18
2017-09-30T08:02:35.206Z,49.68
2017-09-30T08:17:35.215Z,49.06
2017-09-30T08:32:34.625Z,50.37
2017-09-30T08:47:34.575Z,51.01
2017-09-30T09:02:34.592Z,50.63
2017-09-30T09:17:34.516Z,49.68
2017-09-30T09:32:34.912Z,49.42
2017-09-30T09:47:37.219Z,50.50
2017-09-30T10:02:34.882Z,51.43
2017-09-30T10:17:34.782Z,52.29
2017-09-30T10:32:35.269Z,53.75
2017-09-30T10:47:34.658Z,56.73
2017-09-30T11:02:35.056Z,51.78
2017-09-30T11:17:35.091Z,53.07
2017-09-30T11:32:34.522Z,52.38
2017-09-30T11:47:34.427Z,52.56
2017-09-30T12:02:34.366Z,52.46
2017-09-30T12:17:34.345Z,52.80
2017-09-30T12:32:35.821Z,54.32
2017-09-30T12:47:34.728Z,55.21
2017-09-30T13:02:34.671Z,56.22
2017-09-30T13:17:34.602Z,56.47
2017-09-30T13:32:35.048Z,55.83
2017-09-30T13:47:34.982Z,57.30
2017-09-30T14:02:35.739Z,58.20
2017-09-30T14:17:34.918Z,59.51
2017-09-30T14:32:34.829Z,60.55
2017-09-30T14:47:37.034Z,61.27
2017-09-30T15:02:34.693Z,62.02
2017-09-30T15:17:34.682Z,62.60
2017-09-30T15:32:34.606Z,62.54
2017-09-30T15:47:34.071Z,62.32
2017-09-30T16:02:34.537Z,62.71
2017-09-30T16:17:36.200Z,63.77
2017-09-30T16:32:34.949Z,64.52
2017-09-30T16:47:36.863Z,65.78
2017-09-30T17:02:34.774Z,67.19
2017-09-30T17:17:34.766Z,67.79
2017-09-30T17:32:38.593Z,61.22
2017-09-30T17:47:34.671Z,58.08
2017-09-30T18:02:35.143Z,62.08
2017-09-30T18:17:35.126Z,64.34
2017-09-30T18:32:34.277Z,64.56
2017-09-30T18:47:33.946Z,65.36
2017-09-30T19:02:34.411Z,64.86
2017-09-30T19:17:34.399Z,64.65
2017-09-30T19:32:36.793Z,64.67
2017-09-30T19:47:34.784Z,65.56
2017-09-30T20:02:36.715Z,65.21
2017-09-30T20:17:34.689Z,64.93
2017-09-30T20:32:35.098Z,65.29
2017-09-30T20:47:34.993Z,65.51
2017-09-30T21:02:37.009Z,65.87
2017-09-30T21:17:36.968Z,67.55
2017-09-30T21:32:34.365Z,68.85
2017-09-30T21:47:34.323Z,70.39
2017-09-30T22:02:34.235Z,72.03
2017-09-30T22:17:35.184Z,73.22
2017-09-30T22:32:34.649Z,74.19
2017-09-30T22:47:34.659Z,75.04
2017-09-30T23:02:34.538Z,74.26
2017-09-30T23:17:34.508Z,74.24
2017-09-30T23:32:34.905Z,74.68
2017-09-30T23:47:34.877Z,74.92
